createdAt,value
2019-05-12T00:00:03.748Z,93.18
2019-05-12T00:01:03.727Z,92.80
2019-05-12T00:02:03.712Z,93.18
2019-05-12T00:03:03.683Z,92.99
2019-05-12T00:04:03.657Z,92.32
2019-05-12T00:05:03.637Z,92.71
2019-05-12T00:06:03.612Z,92.04
2019-05-12T00:07:03.590Z,92.04
2019-05-12T00:08:03.574Z,91.94
2019-05-12T00:09:03.545Z,92.04
2019-05-12T00:10:03.518Z,92.04
2019-05-12T00:11:03.496Z,92.42
2019-05-12T00:12:03.483Z,93.08
2019-05-12T00:13:03.467Z,92.51
2019-05-12T00:14:03.431Z,92.71
2019-05-12T00:15:03.408Z,92.61
2019-05-12T00:16:03.395Z,92.71
2019-05-12T00:17:03.364Z,92.61
2019-05-12T00:18:03.338Z,93.08
2019-05-12T00:19:03.318Z,92.80
2019-05-12T00:20:03.308Z,92.71
2019-05-12T00:21:03.277Z,93.18
2019-05-12T00:22:03.257Z,92.99
2019-05-12T00:23:03.227Z,93.08
2019-05-12T00:24:03.215Z,92.90
2019-05-12T00:25:03.181Z,93.18
2019-05-12T00:26:03.398Z,93.08
2019-05-12T00:27:03.134Z,92.85
2019-05-12T00:28:03.121Z,93.56
2019-05-12T00:29:03.104Z,93.23
2019-05-12T00:30:03.067Z,94.23
2019-05-12T00:31:03.045Z,94.08
2019-05-12T00:32:03.024Z,93.99
2019-05-12T00:33:03.004Z,93.89
2019-05-12T00:34:02.978Z,93.80
2019-05-12T00:35:02.951Z,93.80
2019-05-12T00:36:02.932Z,94.27
2019-05-12T00:37:02.914Z,93.27
2019-05-12T00:38:02.884Z,93.18
2019-05-12T00:39:02.861Z,93.75
2019-05-12T00:40:02.842Z,93.65
2019-05-12T00:41:02.815Z,92.90
2019-05-12T00:42:02.793Z,92.90
2019-05-12T00:43:02.772Z,92.99
2019-05-12T00:44:02.748Z,92.71
2019-05-12T00:45:02.726Z,92.99
2019-05-12T00:46:02.703Z,92.80
2019-05-12T00:47:02.681Z,92.04
2019-05-12T00:48:02.658Z,92.13
2019-05-12T00:49:02.637Z,91.85
2019-05-12T00:50:02.613Z,92.32
2019-05-12T00:51:02.588Z,92.75
2019-05-12T00:52:02.568Z,93.41
2019-05-12T00:53:02.545Z,94.08
2019-05-12T00:54:02.557Z,94.74
2019-05-12T00:55:02.510Z,94.65
2019-05-12T00:56:02.478Z,94.65
2019-05-12T00:57:02.454Z,94.93
2019-05-12T00:58:02.432Z,94.18
2019-05-12T00:59:02.417Z,93.89
2019-05-12T01:00:02.392Z,93.27
2019-05-12T01:01:02.363Z,93.27
2019-05-12T01:02:02.338Z,92.66
2019-05-12T01:03:02.324Z,92.66
2019-05-12T01:04:02.295Z,92.75
2019-05-12T01:05:02.276Z,93.51
2019-05-12T01:06:02.249Z,93.80
2019-05-12T01:07:02.238Z,94.27
2019-05-12T01:08:02.207Z,94.08
2019-05-12T01:09:02.183Z,94.84
2019-05-12T01:10:04.843Z,95.12
2019-05-12T01:11:02.134Z,94.65
2019-05-12T01:12:02.116Z,94.56
2019-05-12T01:13:02.095Z,94.84
2019-05-12T01:14:02.068Z,94.74
2019-05-12T01:15:02.043Z,94.65
2019-05-12T01:16:02.019Z,95.03
2019-05-12T01:17:01.999Z,95.22
2019-05-12T01:18:01.973Z,95.41
2019-05-12T01:19:01.952Z,95.22
2019-05-12T01:20:01.937Z,94.18
2019-05-12T01:21:01.907Z,94.51
2019-05-12T01:22:01.883Z,95.55
2019-05-12T01:23:01.862Z,94.89
2019-05-12T01:24:03.482Z,95.84
2019-05-12T01:25:01.816Z,96.88
2019-05-12T01:26:01.911Z,97.17
2019-05-12T01:27:01.769Z,97.92
2019-05-12T01:28:01.747Z,98.21
2019-05-12T01:29:01.725Z,98.87
2019-05-12T01:30:01.704Z,99.26
2019-05-12T01:31:01.677Z,99.54
2019-05-12T01:32:01.654Z,99.99
2019-05-12T01:33:01.632Z,99.99
2019-05-12T01:34:01.611Z,99.99
2019-05-12T01:35:01.591Z,99.99
2019-05-12T01:36:01.566Z,99.99
2019-05-12T01:37:01.541Z,99.99
2019-05-12T01:38:01.655Z,99.99
2019-05-12T01:39:01.904Z,99.99
2019-05-12T01:40:01.479Z,99.99
2019-05-12T01:41:01.449Z,99.99
2019-05-12T01:42:01.433Z,99.99
2019-05-12T01:43:01.405Z,99.99
2019-05-12T01:44:01.382Z,99.99
2019-05-12T01:45:01.357Z,99.99
2019-05-12T01:46:01.334Z,99.99
2019-05-12T01:47:01.311Z,99.99
2019-05-12T01:48:01.289Z,99.99
2019-05-12T01:49:01.266Z,99.99
2019-05-12T01:50:01.242Z,99.99
2019-05-12T01:51:01.224Z,99.99
2019-05-12T01:52:01.196Z,99.99
2019-05-12T01:53:01.175Z,99.99
2019-05-12T01:54:11.044Z,99.99
2019-05-12T01:55:01.125Z,99.99
2019-05-12T01:56:01.103Z,99.99
2019-05-12T01:57:01.079Z,99.99
2019-05-12T01:58:01.057Z,99.99
2019-05-12T01:59:01.032Z,99.99
2019-05-12T02:00:01.011Z,99.99
2019-05-12T02:01:02.920Z,99.99
2019-05-12T02:02:00.962Z,99.99
2019-05-12T02:03:00.944Z,99.99
2019-05-12T02:04:00.922Z,99.99
2019-05-12T02:05:00.897Z,99.99
2019-05-12T02:06:00.873Z,99.99
2019-05-12T02:07:00.848Z,99.99
2019-05-12T02:08:00.825Z,99.99
2019-05-12T02:09:00.804Z,99.99
2019-05-12T02:10:00.779Z,99.99
2019-05-12T02:11:00.755Z,99.99
2019-05-12T02:12:00.736Z,99.99
2019-05-12T02:13:00.712Z,99.99
2019-05-12T02:14:00.684Z,99.99
2019-05-12T02:15:00.663Z,99.99
2019-05-12T02:16:00.642Z,99.99
2019-05-12T02:17:00.617Z,99.99
2019-05-12T02:18:00.591Z,99.99
2019-05-12T02:19:00.567Z,99.99
2019-05-12T02:20:00.546Z,99.99
2019-05-12T02:21:00.522Z,99.99
2019-05-12T02:22:00.506Z,99.99
2019-05-12T02:23:00.474Z,99.99
2019-05-12T02:24:00.452Z,99.99
2019-05-12T02:25:00.435Z,99.99
2019-05-12T02:26:00.405Z,99.99
2019-05-12T02:27:00.383Z,99.99
2019-05-12T02:28:00.368Z,99.99
2019-05-12T02:29:00.336Z,99.99
2019-05-12T02:30:00.315Z,99.99
2019-05-12T02:31:00.290Z,99.99
2019-05-12T02:32:00.267Z,99.99
2019-05-12T02:33:00.262Z,99.99
2019-05-12T02:34:00.263Z,99.99
2019-05-12T02:35:00.200Z,99.99
2019-05-12T02:36:00.175Z,99.99
2019-05-12T02:37:00.152Z,99.99
2019-05-12T02:38:00.136Z,99.99
2019-05-12T02:39:00.110Z,99.99
2019-05-12T02:40:00.085Z,99.99
2019-05-12T02:41:00.060Z,99.99
2019-05-12T02:42:00.033Z,99.99
2019-05-12T02:43:00.011Z,99.99
2019-05-12T02:43:59.999Z,99.99
2019-05-12T02:44:59.967Z,99.99
2019-05-12T02:45:59.937Z,99.99
2019-05-12T02:46:59.928Z,99.99
2019-05-12T02:47:59.893Z,99.99
2019-05-12T02:48:59.874Z,99.99
2019-05-12T02:49:59.851Z,99.99
2019-05-12T02:50:59.827Z,99.99
2019-05-12T02:51:59.803Z,99.99
2019-05-12T02:52:59.787Z,99.99
2019-05-12T02:53:59.762Z,99.99
2019-05-12T02:55:00.923Z,99.99
2019-05-12T02:55:59.707Z,99.99
2019-05-12T02:56:59.683Z,99.99
2019-05-12T02:57:59.658Z,99.99
2019-05-12T02:58:59.637Z,99.99
2019-05-12T02:59:59.611Z,99.99
2019-05-12T03:00:59.588Z,99.99
2019-05-12T03:01:59.565Z,99.99
2019-05-12T03:02:59.542Z,99.99
2019-05-12T03:03:59.526Z,99.99
2019-05-12T03:04:59.507Z,99.99
2019-05-12T03:05:59.473Z,99.99
2019-05-12T03:07:02.178Z,99.99
2019-05-12T03:07:59.425Z,99.99
2019-05-12T03:08:59.408Z,99.99
2019-05-12T03:09:59.378Z,99.99
2019-05-12T03:10:59.355Z,99.99
2019-05-12T03:11:59.330Z,99.99
2019-05-12T03:12:59.309Z,99.99
2019-05-12T03:13:59.291Z,99.99
2019-05-12T03:14:59.273Z,99.99
2019-05-12T03:15:59.239Z,99.99
2019-05-12T03:16:59.216Z,99.99
2019-05-12T03:17:59.194Z,99.99
2019-05-12T03:18:59.163Z,99.99
2019-05-12T03:19:59.149Z,99.99
2019-05-12T03:20:59.120Z,99.99
2019-05-12T03:21:59.096Z,99.99
2019-05-12T03:22:59.074Z,99.99
2019-05-12T03:23:59.053Z,99.99
2019-05-12T03:25:11.290Z,99.99
2019-05-12T03:25:59.009Z,99.99
2019-05-12T03:26:58.980Z,99.99
2019-05-12T03:27:58.964Z,99.99
2019-05-12T03:28:58.935Z,99.99
2019-05-12T03:29:58.911Z,99.99
2019-05-12T03:30:58.886Z,99.99
2019-05-12T03:31:58.876Z,99.99
2019-05-12T03:32:58.925Z,99.99
2019-05-12T03:34:00.409Z,99.99
2019-05-12T03:34:58.791Z,99.99
2019-05-12T03:36:00.223Z,99.99
2019-05-12T03:36:59.656Z,99.99
2019-05-12T03:37:58.723Z,99.99
2019-05-12T03:38:58.696Z,99.99
2019-05-12T03:39:58.678Z,99.99
2019-05-12T03:40:58.656Z,99.99
2019-05-12T03:41:58.625Z,99.99
2019-05-12T03:42:58.612Z,99.99
2019-05-12T03:43:58.578Z,99.99
2019-05-12T03:44:58.555Z,99.99
2019-05-12T03:45:58.534Z,99.99
2019-05-12T03:46:58.520Z,99.99
2019-05-12T03:47:58.488Z,99.99
2019-05-12T03:48:58.463Z,99.99
2019-05-12T03:49:58.440Z,99.99
2019-05-12T03:50:58.418Z,99.99
2019-05-12T03:51:58.395Z,99.99
2019-05-12T03:52:58.370Z,99.99
2019-05-12T03:53:58.360Z,99.99
2019-05-12T03:54:58.320Z,99.99
2019-05-12T03:55:58.299Z,99.99
2019-05-12T03:56:58.278Z,99.99
2019-05-12T03:57:58.254Z,99.99
2019-05-12T03:58:58.232Z,99.99
2019-05-12T03:59:58.212Z,99.99
2019-05-12T04:00:58.180Z,99.99
2019-05-12T04:01:58.159Z,99.99
2019-05-12T04:02:58.132Z,99.99
2019-05-12T04:03:58.121Z,99.99
2019-05-12T04:04:58.099Z,99.99
2019-05-12T04:05:58.062Z,99.99
2019-05-12T04:06:58.039Z,99.99
2019-05-12T04:07:58.015Z,99.99
2019-05-12T04:09:00.027Z,99.99
2019-05-12T04:09:57.969Z,99.99
2019-05-12T04:10:57.948Z,99.99
2019-05-12T04:11:57.923Z,99.99
2019-05-12T04:12:57.901Z,99.99
2019-05-12T04:13:57.875Z,99.99
2019-05-12T04:14:57.857Z,99.99
2019-05-12T04:15:57.831Z,99.99
2019-05-12T04:16:57.812Z,99.99
2019-05-12T04:17:57.782Z,99.99
2019-05-12T04:18:57.770Z,99.99
2019-05-12T04:19:57.735Z,99.99
2019-05-12T04:20:57.712Z,99.99
2019-05-12T04:21:57.689Z,99.99
2019-05-12T04:22:57.664Z,99.99
2019-05-12T04:23:57.643Z,99.99
2019-05-12T04:24:57.627Z,99.99
2019-05-12T04:26:07.083Z,99.99
2019-05-12T04:26:57.575Z,99.99
2019-05-12T04:27:57.549Z,99.99
2019-05-12T04:28:57.530Z,99.99
2019-05-12T04:29:57.505Z,99.99
2019-05-12T04:30:57.484Z,99.99
2019-05-12T04:31:57.454Z,99.99
2019-05-12T04:32:57.434Z,99.99
2019-05-12T04:33:57.415Z,99.99
2019-05-12T04:34:57.385Z,99.99
2019-05-12T04:35:57.359Z,99.99
2019-05-12T04:36:57.342Z,99.99
2019-05-12T04:37:57.315Z,99.99
2019-05-12T04:38:57.289Z,99.99
2019-05-12T04:39:57.267Z,99.99
2019-05-12T04:40:57.243Z,99.99
2019-05-12T04:41:57.223Z,99.99
2019-05-12T04:42:57.197Z,99.99
2019-05-12T04:43:57.172Z,99.99
2019-05-12T04:44:57.148Z,99.99
2019-05-12T04:45:57.143Z,99.99
2019-05-12T04:46:57.109Z,99.99
2019-05-12T04:47:57.081Z,99.99
2019-05-12T04:48:57.065Z,99.99
2019-05-12T04:49:57.041Z,99.99
2019-05-12T04:50:57.009Z,99.99
2019-05-12T04:51:56.986Z,99.99
2019-05-12T04:52:56.964Z,99.99
2019-05-12T04:53:56.945Z,99.99
2019-05-12T04:54:56.916Z,99.99
2019-05-12T04:56:14.482Z,99.99
2019-05-12T04:56:56.876Z,99.99
2019-05-12T04:57:56.846Z,99.99
2019-05-12T04:58:56.827Z,99.99
2019-05-12T04:59:56.804Z,99.99
2019-05-12T05:00:56.779Z,99.99
2019-05-12T05:01:56.757Z,99.99
2019-05-12T05:02:56.732Z,99.99
2019-05-12T05:03:56.710Z,99.99
2019-05-12T05:04:56.687Z,99.99
2019-05-12T05:05:56.662Z,99.99
2019-05-12T05:06:56.640Z,99.99
2019-05-12T05:07:56.616Z,99.99
2019-05-12T05:08:56.594Z,99.99
2019-05-12T05:09:56.569Z,99.99
2019-05-12T05:10:56.549Z,99.99
2019-05-12T05:11:56.526Z,99.99
2019-05-12T05:12:56.502Z,99.99
2019-05-12T05:13:56.487Z,99.99
2019-05-12T05:14:56.458Z,99.99
2019-05-12T05:15:56.433Z,99.99
2019-05-12T05:16:56.409Z,99.99
2019-05-12T05:17:56.384Z,99.99
2019-05-12T05:18:56.359Z,99.99
2019-05-12T05:19:56.338Z,99.99
2019-05-12T05:20:56.318Z,99.99
2019-05-12T05:21:56.290Z,99.99
2019-05-12T05:22:56.269Z,99.99
2019-05-12T05:23:56.251Z,99.99
2019-05-12T05:24:56.226Z,99.99
2019-05-12T05:25:56.200Z,99.99
2019-05-12T05:26:56.178Z,99.99
2019-05-12T05:27:56.155Z,99.83
2019-05-12T05:28:56.131Z,99.99
2019-05-12T05:29:56.107Z,99.99
2019-05-12T05:30:56.085Z,99.99
2019-05-12T05:31:56.062Z,99.92
2019-05-12T05:32:56.040Z,99.99
2019-05-12T05:33:56.017Z,99.99
2019-05-12T05:34:57.903Z,99.64
2019-05-12T05:35:55.977Z,99.64
2019-05-12T05:37:01.244Z,98.31
2019-05-12T05:37:55.923Z,98.50
2019-05-12T05:38:57.321Z,99.16
2019-05-12T05:39:55.879Z,99.07
2019-05-12T05:40:59.736Z,99.35
2019-05-12T05:41:55.837Z,99.35
2019-05-12T05:42:55.809Z,98.97
2019-05-12T05:43:58.378Z,98.97
2019-05-12T05:44:55.764Z,98.97
2019-05-12T05:46:02.516Z,98.93
2019-05-12T05:46:56.793Z,98.02
2019-05-12T05:47:59.532Z,98.12
2019-05-12T05:48:55.678Z,97.92
2019-05-12T05:49:55.649Z,98.21
2019-05-12T05:50:59.994Z,98.55
2019-05-12T05:51:57.603Z,98.31
2019-05-12T05:52:55.579Z,97.74
2019-05-12T05:53:55.556Z,97.83
2019-05-12T05:54:55.543Z,97.78
2019-05-12T05:56:00.084Z,97.97
2019-05-12T05:56:59.620Z,97.88
2019-05-12T05:57:59.870Z,97.31
2019-05-12T05:58:55.454Z,97.31
2019-05-12T05:59:55.419Z,97.69
2019-05-12T06:01:03.019Z,98.07
2019-05-12T06:01:55.373Z,97.12
2019-05-12T06:02:55.353Z,96.55
2019-05-12T06:03:58.401Z,96.74
2019-05-12T06:04:56.418Z,96.36
2019-05-12T06:05:55.280Z,97.41
2019-05-12T06:06:56.008Z,96.55
2019-05-12T06:07:55.236Z,95.32
2019-05-12T06:08:55.214Z,95.60
2019-05-12T06:09:55.189Z,95.41
2019-05-12T06:10:55.176Z,94.65
2019-05-12T06:11:59.166Z,94.08
2019-05-12T06:12:55.121Z,94.27
2019-05-12T06:13:55.099Z,93.89
2019-05-12T06:14:59.759Z,94.08
2019-05-12T06:15:55.052Z,93.60
2019-05-12T06:16:55.027Z,94.37
2019-05-12T06:17:55.007Z,93.13
2019-05-12T06:18:54.983Z,92.85
2019-05-12T06:19:54.964Z,93.04
2019-05-12T06:20:54.941Z,93.23
2019-05-12T06:21:54.912Z,92.27
2019-05-12T06:22:57.617Z,91.99
2019-05-12T06:23:54.869Z,92.70
2019-05-12T06:24:58.903Z,92.89
2019-05-12T06:25:55.029Z,92.61
2019-05-12T06:27:00.398Z,91.85
2019-05-12T06:27:59.973Z,91.94
2019-05-12T06:28:57.702Z,91.85
2019-05-12T06:30:01.003Z,91.75
2019-05-12T06:30:57.947Z,92.03
2019-05-12T06:31:54.689Z,90.80
2019-05-12T06:32:54.734Z,90.61
2019-05-12T06:33:54.636Z,90.42
2019-05-12T06:34:57.024Z,90.84
2019-05-12T06:35:54.591Z,92.08
2019-05-12T06:36:57.201Z,92.65
2019-05-12T06:38:00.090Z,91.03
2019-05-12T06:38:54.537Z,90.47
2019-05-12T06:39:56.465Z,90.66
2019-05-12T06:40:54.519Z,90.08
2019-05-12T06:41:57.186Z,89.70
2019-05-12T06:42:57.170Z,90.47
2019-05-12T06:43:54.409Z,90.94
2019-05-12T06:44:57.143Z,90.28
2019-05-12T06:45:54.517Z,90.47
2019-05-12T06:47:02.435Z,90.22
2019-05-12T06:47:56.130Z,89.27
2019-05-12T06:48:54.496Z,88.60
2019-05-12T06:49:58.024Z,88.60
2019-05-12T06:50:54.248Z,86.32
2019-05-12T06:52:01.819Z,86.80
2019-05-12T06:52:54.205Z,86.99
2019-05-12T06:53:54.180Z,86.99
2019-05-12T06:54:56.556Z,88.42
2019-05-12T06:55:54.161Z,86.22
2019-05-12T06:56:57.689Z,86.22
2019-05-12T06:57:54.098Z,86.99
2019-05-12T06:58:54.065Z,86.99
2019-05-12T06:59:55.178Z,86.61
2019-05-12T07:00:54.122Z,86.99
2019-05-12T07:01:58.776Z,87.56
2019-05-12T07:02:55.322Z,87.85
2019-05-12T07:03:53.961Z,87.94
2019-05-12T07:04:59.016Z,86.99
2019-05-12T07:05:53.914Z,86.04
2019-05-12T07:06:56.075Z,86.42
2019-05-12T07:07:53.867Z,87.85
2019-05-12T07:09:03.406Z,88.04
2019-05-12T07:09:57.063Z,88.37
2019-05-12T07:11:01.893Z,87.18
2019-05-12T07:12:02.831Z,87.37
2019-05-12T07:13:01.466Z,86.99
2019-05-12T07:14:02.135Z,87.56
2019-05-12T07:14:55.622Z,86.32
2019-05-12T07:15:54.444Z,85.94
2019-05-12T07:17:01.559Z,85.60
2019-05-12T07:17:55.779Z,85.80
2019-05-12T07:18:54.198Z,86.18
2019-05-12T07:19:56.972Z,85.22
2019-05-12T07:20:53.839Z,84.94
2019-05-12T07:21:58.731Z,84.56
2019-05-12T07:22:54.838Z,84.56
2019-05-12T07:23:53.602Z,85.32
2019-05-12T07:24:54.751Z,85.03
2019-05-12T07:25:55.006Z,84.33
2019-05-12T07:27:02.712Z,84.70
2019-05-12T07:28:00.072Z,84.89
2019-05-12T07:28:54.091Z,85.28
2019-05-12T07:29:54.195Z,84.61
2019-05-12T07:30:54.545Z,84.70
2019-05-12T07:31:53.768Z,85.37
2019-05-12T07:32:59.724Z,84.89
2019-05-12T07:33:54.201Z,85.66
2019-05-12T07:34:54.340Z,85.66
2019-05-12T07:36:01.071Z,85.89
2019-05-12T07:36:53.813Z,84.84
2019-05-12T07:37:53.911Z,85.22
2019-05-12T07:38:58.095Z,84.65
2019-05-12T07:39:53.859Z,83.51
2019-05-12T07:40:53.649Z,83.03
2019-05-12T07:41:54.927Z,83.41
2019-05-12T07:42:54.378Z,83.70
2019-05-12T07:43:56.769Z,83.32
2019-05-12T07:44:54.373Z,83.22
2019-05-12T07:46:01.838Z,83.61
2019-05-12T07:46:54.062Z,81.98
2019-05-12T07:47:54.138Z,80.52
2019-05-12T07:48:54.247Z,80.42
2019-05-12T07:49:53.801Z,80.71
2019-05-12T07:50:56.369Z,81.76
2019-05-12T07:51:54.228Z,81.56
2019-05-12T07:52:54.286Z,80.71
2019-05-12T07:53:57.225Z,81.76
2019-05-12T07:54:55.898Z,81.66
2019-05-12T07:55:53.274Z,82.32
2019-05-12T07:56:53.978Z,82.75
2019-05-12T07:57:58.360Z,80.94
2019-05-12T07:58:56.516Z,80.55
2019-05-12T07:59:54.130Z,78.56
2019-05-12T08:00:53.840Z,77.45
2019-05-12T08:01:54.948Z,77.07
2019-05-12T08:02:54.043Z,76.21
2019-05-12T08:03:57.309Z,76.79
2019-05-12T08:04:54.170Z,76.40
2019-05-12T08:05:57.410Z,74.35
2019-05-12T08:06:53.835Z,73.17
2019-05-12T08:07:53.568Z,73.36
2019-05-12T08:08:58.093Z,74.12
2019-05-12T08:09:53.649Z,74.31
2019-05-12T08:10:55.857Z,75.55
2019-05-12T08:11:54.092Z,76.59
2019-05-12T08:12:59.373Z,75.60
2019-05-12T08:13:54.223Z,75.70
2019-05-12T08:14:54.165Z,74.65
2019-05-12T08:15:55.634Z,74.27
2019-05-12T08:16:54.268Z,74.65
2019-05-12T08:17:57.714Z,74.46
2019-05-12T08:18:53.503Z,75.60
2019-05-12T08:19:53.625Z,75.79
2019-05-12T08:20:53.893Z,74.94
2019-05-12T08:21:53.709Z,74.56
2019-05-12T08:22:54.163Z,75.60
2019-05-12T08:23:53.403Z,74.37
2019-05-12T08:24:53.779Z,73.70
2019-05-12T08:25:54.040Z,72.56
2019-05-12T08:26:59.547Z,72.75
2019-05-12T08:28:04.138Z,73.03
2019-05-12T08:28:53.556Z,73.22
2019-05-12T08:30:00.798Z,73.17
2019-05-12T08:30:54.670Z,72.21
2019-05-12T08:31:54.621Z,71.58
2019-05-12T08:32:56.360Z,70.63
2019-05-12T08:33:53.829Z,70.25
2019-05-12T08:34:54.088Z,68.72
2019-05-12T08:35:51.907Z,68.53
2019-05-12T08:36:56.547Z,67.96
2019-05-12T08:37:54.315Z,69.33
2019-05-12T08:38:53.637Z,69.43
2019-05-12T08:39:53.273Z,68.09
2019-05-12T08:40:54.316Z,67.71
2019-05-12T08:41:53.535Z,67.52
2019-05-12T08:42:53.932Z,67.23
2019-05-12T08:43:57.897Z,67.71
2019-05-12T08:44:54.120Z,67.61
2019-05-12T08:45:53.623Z,68.28
2019-05-12T08:46:55.799Z,69.71
2019-05-12T08:47:51.656Z,70.57
2019-05-12T08:48:57.907Z,69.23
2019-05-12T08:49:58.364Z,70.06
2019-05-12T08:50:51.587Z,71.20
2019-05-12T08:51:55.821Z,70.06
2019-05-12T08:52:53.765Z,71.11
2019-05-12T08:53:53.899Z,70.12
2019-05-12T08:54:53.618Z,72.12
2019-05-12T08:55:53.753Z,72.41
2019-05-12T08:56:59.327Z,72.69
2019-05-12T08:57:51.431Z,72.16
2019-05-12T08:58:54.314Z,71.73
2019-05-12T08:59:54.673Z,73.30
2019-05-12T09:00:51.384Z,73.49
2019-05-12T09:01:53.850Z,73.21
2019-05-12T09:02:51.326Z,73.39
2019-05-12T09:03:53.214Z,72.25
2019-05-12T09:04:55.456Z,72.16
2019-05-12T09:05:53.535Z,72.44
2019-05-12T09:06:56.685Z,72.44
2019-05-12T09:07:51.229Z,71.01
2019-05-12T09:08:51.207Z,70.82
2019-05-12T09:09:53.255Z,70.86
2019-05-12T09:10:54.727Z,70.19
2019-05-12T09:11:51.130Z,69.23
2019-05-12T09:12:51.113Z,69.33
2019-05-12T09:13:52.760Z,69.33
2019-05-12T09:14:51.068Z,68.38
2019-05-12T09:15:51.046Z,67.99
2019-05-12T09:16:53.643Z,68.47
2019-05-12T09:17:56.525Z,68.91
2019-05-12T09:18:50.988Z,69.20
2019-05-12T09:19:54.978Z,69.29
2019-05-12T09:20:53.473Z,70.44
2019-05-12T09:21:50.926Z,70.15
2019-05-12T09:22:58.014Z,68.53
2019-05-12T09:23:53.989Z,69.01
2019-05-12T09:24:53.233Z,69.20
2019-05-12T09:25:50.831Z,69.87
2019-05-12T09:26:50.806Z,70.00
2019-05-12T09:27:50.786Z,69.23
2019-05-12T09:28:50.766Z,68.57
2019-05-12T09:29:50.751Z,67.99
2019-05-12T09:30:50.733Z,68.66
2019-05-12T09:31:50.739Z,66.38
2019-05-12T09:32:53.979Z,64.28
2019-05-12T09:33:50.658Z,63.42
2019-05-12T09:34:52.847Z,63.92
2019-05-12T09:35:50.626Z,63.07
2019-05-12T09:36:51.897Z,60.39
2019-05-12T09:37:50.584Z,60.97
2019-05-12T09:38:53.644Z,61.73
2019-05-12T09:39:51.843Z,62.02
2019-05-12T09:40:52.814Z,61.83
2019-05-12T09:41:52.759Z,60.97
2019-05-12T09:42:50.481Z,60.30
2019-05-12T09:43:50.658Z,61.07
2019-05-12T09:44:50.429Z,62.59
2019-05-12T09:45:54.005Z,61.54
2019-05-12T09:46:50.385Z,60.61
2019-05-12T09:47:50.364Z,59.34
2019-05-12T09:48:52.348Z,58.39
2019-05-12T09:49:50.335Z,59.34
2019-05-12T09:50:51.491Z,59.28
2019-05-12T09:51:50.281Z,59.28
2019-05-12T09:52:54.980Z,59.19
2019-05-12T09:53:51.123Z,58.51
2019-05-12T09:54:50.222Z,57.94
2019-05-12T09:55:50.200Z,58.80
2019-05-12T09:56:55.393Z,58.99
2019-05-12T09:57:50.166Z,57.50
2019-05-12T09:58:59.086Z,58.04
2019-05-12T09:59:57.278Z,56.60
2019-05-12T10:00:50.095Z,56.67
2019-05-12T10:01:50.075Z,57.82
2019-05-12T10:02:51.211Z,58.01
2019-05-12T10:03:50.041Z,58.58
2019-05-12T10:04:50.282Z,59.38
2019-05-12T10:05:49.995Z,59.38
2019-05-12T10:06:49.974Z,58.04
2019-05-12T10:07:49.950Z,57.56
2019-05-12T10:08:49.930Z,58.61
2019-05-12T10:09:55.091Z,59.22
2019-05-12T10:10:49.894Z,58.54
2019-05-12T10:11:53.911Z,60.55
2019-05-12T10:12:50.662Z,61.13
2019-05-12T10:13:49.832Z,62.46
2019-05-12T10:14:49.812Z,62.84
2019-05-12T10:15:49.786Z,62.08
2019-05-12T10:16:49.987Z,62.08
2019-05-12T10:17:49.746Z,62.27
2019-05-12T10:18:51.459Z,61.79
2019-05-12T10:19:56.201Z,60.27
2019-05-12T10:20:49.695Z,59.22
2019-05-12T10:21:57.812Z,59.41
2019-05-12T10:22:49.644Z,57.68
2019-05-12T10:23:51.439Z,56.25
2019-05-12T10:24:55.946Z,56.32
2019-05-12T10:25:49.582Z,57.09
2019-05-12T10:26:50.707Z,58.16
2019-05-12T10:27:49.558Z,59.22
2019-05-12T10:28:52.474Z,58.07
2019-05-12T10:29:49.514Z,57.40
2019-05-12T10:30:55.219Z,57.11
2019-05-12T10:31:49.476Z,58.04
2019-05-12T10:32:49.448Z,58.42
2019-05-12T10:33:54.869Z,58.16
2019-05-12T10:34:51.123Z,59.69
2019-05-12T10:35:49.385Z,58.16
2019-05-12T10:36:49.394Z,58.54
2019-05-12T10:37:49.344Z,56.63
2019-05-12T10:38:49.322Z,57.40
2019-05-12T10:39:49.326Z,56.82
2019-05-12T10:40:49.287Z,57.21
2019-05-12T10:41:49.265Z,56.80
2019-05-12T10:42:49.672Z,56.92
2019-05-12T10:43:56.068Z,57.40
2019-05-12T10:44:49.203Z,57.68
2019-05-12T10:45:49.181Z,57.31
2019-05-12T10:46:49.160Z,57.02
2019-05-12T10:47:49.143Z,56.25
2019-05-12T10:48:49.117Z,55.99
2019-05-12T10:49:49.103Z,53.00
2019-05-12T10:50:49.092Z,53.10
2019-05-12T10:51:49.064Z,52.05
2019-05-12T10:52:49.054Z,52.53
2019-05-12T10:53:56.783Z,53.49
2019-05-12T10:54:48.996Z,52.22
2019-05-12T10:55:48.980Z,52.22
2019-05-12T10:56:48.956Z,53.65
2019-05-12T10:57:52.928Z,53.45
2019-05-12T10:58:48.918Z,53.55
2019-05-12T10:59:48.914Z,53.74
2019-05-12T11:00:48.876Z,52.88
2019-05-12T11:01:49.255Z,53.67
2019-05-12T11:02:48.834Z,54.63
2019-05-12T11:03:50.748Z,53.80
2019-05-12T11:04:48.794Z,53.22
2019-05-12T11:05:48.781Z,53.73
2019-05-12T11:06:48.757Z,52.26
2019-05-12T11:07:48.738Z,53.67
2019-05-12T11:08:51.258Z,56.16
2019-05-12T11:09:48.703Z,56.82
2019-05-12T11:10:50.419Z,56.92
2019-05-12T11:11:48.647Z,57.11
2019-05-12T11:12:48.631Z,57.33
2019-05-12T11:13:49.975Z,57.33
2019-05-12T11:14:48.601Z,56.85
2019-05-12T11:15:49.773Z,56.85
2019-05-12T11:16:48.554Z,56.67
2019-05-12T11:17:49.819Z,56.18
2019-05-12T11:18:48.514Z,55.42
2019-05-12T11:19:51.346Z,55.52
2019-05-12T11:20:48.474Z,55.80
2019-05-12T11:21:48.445Z,56.47
2019-05-12T11:22:48.431Z,56.47
2019-05-12T11:23:48.408Z,54.56
2019-05-12T11:24:48.396Z,54.37
2019-05-12T11:25:48.369Z,54.75
2019-05-12T11:26:48.354Z,54.27
2019-05-12T11:27:48.330Z,53.03
2019-05-12T11:28:48.321Z,51.79
2019-05-12T11:29:49.592Z,51.98
2019-05-12T11:30:48.265Z,54.30
2019-05-12T11:31:48.255Z,52.94
2019-05-12T11:32:48.237Z,54.02
2019-05-12T11:33:48.215Z,56.12
2019-05-12T11:34:48.186Z,52.87
2019-05-12T11:35:48.175Z,54.30
2019-05-12T11:36:48.157Z,52.48
2019-05-12T11:37:48.126Z,50.48
2019-05-12T11:38:48.110Z,51.62
2019-05-12T11:39:48.090Z,51.72
2019-05-12T11:40:48.071Z,52.48
2019-05-12T11:41:48.065Z,52.48
2019-05-12T11:42:58.990Z,51.62
2019-05-12T11:43:48.013Z,50.48
2019-05-12T11:44:47.999Z,50.67
2019-05-12T11:45:47.990Z,50.12
2019-05-12T11:46:47.958Z,49.62
2019-05-12T11:47:47.937Z,49.43
2019-05-12T11:48:50.288Z,48.95
2019-05-12T11:49:47.894Z,49.14
2019-05-12T11:50:51.284Z,50.29
2019-05-12T11:51:47.852Z,50.00
2019-05-12T11:52:51.019Z,50.64
2019-05-12T11:53:47.816Z,51.41
2019-05-12T11:54:51.167Z,51.98
2019-05-12T11:55:47.776Z,53.51
2019-05-12T11:56:50.361Z,53.82
2019-05-12T11:57:47.734Z,54.78
2019-05-12T11:58:51.450Z,53.16
2019-05-12T12:00:00.898Z,53.53
2019-05-12T12:00:47.695Z,52.80
2019-05-12T12:01:49.818Z,52.51
2019-05-12T12:02:47.636Z,52.51
2019-05-12T12:03:47.617Z,51.27
2019-05-12T12:04:47.604Z,52.03
2019-05-12T12:05:47.592Z,53.56
2019-05-12T12:06:47.567Z,52.22
2019-05-12T12:07:51.296Z,52.03
2019-05-12T12:08:47.524Z,51.27
2019-05-12T12:09:49.489Z,51.75
2019-05-12T12:10:49.259Z,53.56
2019-05-12T12:11:47.461Z,53.28
2019-05-12T12:12:49.203Z,51.84
2019-05-12T12:13:47.421Z,51.43
2019-05-12T12:14:50.296Z,52.42
2019-05-12T12:15:47.387Z,52.13
2019-05-12T12:16:50.491Z,51.20
2019-05-12T12:17:47.341Z,51.01
2019-05-12T12:18:52.033Z,50.72
2019-05-12T12:19:47.305Z,51.17
2019-05-12T12:20:47.298Z,50.50
2019-05-12T12:21:50.002Z,51.62
2019-05-12T12:22:47.251Z,53.08
2019-05-12T12:23:50.119Z,51.81
2019-05-12T12:24:47.208Z,52.39
2019-05-12T12:25:48.701Z,54.30
2019-05-12T12:26:47.167Z,54.88
2019-05-12T12:27:47.169Z,54.21
2019-05-12T12:28:47.134Z,54.59
2019-05-12T12:29:47.112Z,54.97
2019-05-12T12:30:51.266Z,55.26
2019-05-12T12:31:47.080Z,55.16
2019-05-12T12:32:50.252Z,53.13
2019-05-12T12:33:47.281Z,52.65
2019-05-12T12:34:47.013Z,53.61
2019-05-12T12:35:50.377Z,54.56
2019-05-12T12:36:46.973Z,55.13
2019-05-12T12:37:46.950Z,54.53
2019-05-12T12:38:46.945Z,55.80
2019-05-12T12:39:46.915Z,56.57
2019-05-12T12:40:46.890Z,54.94
2019-05-12T12:41:58.351Z,55.42
2019-05-12T12:42:47.329Z,55.77
2019-05-12T12:43:46.828Z,55.23
2019-05-12T12:44:46.806Z,56.57
2019-05-12T12:45:46.788Z,56.28
2019-05-12T12:46:51.132Z,56.28
2019-05-12T12:47:49.227Z,56.18
2019-05-12T12:48:46.728Z,57.24
2019-05-12T12:49:49.228Z,57.14
2019-05-12T12:50:46.682Z,57.33
2019-05-12T12:51:46.666Z,57.11